Time;durP1;ratioP1;P1;durP2;ratioP2;P2;SDS_P1;SDS_P2;PMS_P1;PMS_P2;Temp;Humidity;BMP_temperature;BMP_pressure;BME280_temperature;BME280_humidity;BME280_pressure;Samples;Min_cycle;Max_cycle;Signal;HPM_P1;HPM_P2
2022/03/10 00:00:41;;;;;;;23.73;11.90;;;;;;;3.51;49.59;97384.66;5111945;28;20211;-63
2022/03/10 00:03:06;;;;;;;24.50;13.27;;;;;;;3.40;49.99;97392.81;5113306;28;20191;-62
2022/03/10 00:05:32;;;;;;;23.03;12.13;;;;;;;3.43;49.29;97395.06;5094527;28;20232;-63
2022/03/10 00:07:57;;;;;;;20.53;11.30;;;;;;;3.41;49.53;97390.03;5112710;28;20188;-63
2022/03/10 00:10:23;;;;;;;18.70;11.00;;;;;;;3.37;49.30;97399.13;5116849;28;20187;-63
2022/03/10 00:12:52;;;;;;;20.80;11.27;;;;;;;3.41;49.85;97405.56;5117332;28;20266;-63
2022/03/10 00:15:23;;;;;;;17.93;10.83;;;;;;;3.50;49.09;97398.59;5098910;28;20184;-63
2022/03/10 00:17:49;;;;;;;15.10;10.17;;;;;;;3.52;49.25;97396.63;5117426;28;20191;-63
2022/03/10 00:20:15;;;;;;;17.43;10.07;;;;;;;3.52;49.41;97400.03;5117137;28;20184;-63
2022/03/10 00:22:48;;;;;;;15.87;9.57;;;;;;;3.50;49.50;97396.00;5098511;28;20664;-63
2022/03/10 00:25:14;;;;;;;17.70;9.63;;;;;;;3.47;49.89;97404.09;5117059;28;20207;-63
2022/03/10 00:27:40;;;;;;;16.07;9.30;;;;;;;3.55;49.09;97399.72;5116708;28;20539;-63
2022/03/10 00:30:07;;;;;;;14.03;9.27;;;;;;;3.50;49.05;97408.97;5116931;28;20577;-63
2022/03/10 00:32:32;;;;;;;18.97;8.93;;;;;;;3.51;49.53;97415.78;5116838;28;20205;-63
2022/03/10 00:34:58;;;;;;;16.37;9.27;;;;;;;3.41;49.08;97415.13;5117023;28;20609;-63
2022/03/10 00:37:23;;;;;;;16.23;9.07;;;;;;;3.30;50.50;97414.50;5116736;28;20221;-63
2022/03/10 00:39:48;;;;;;;16.93;10.40;;;;;;;3.39;49.73;97424.88;5116240;28;20230;-63
2022/03/10 00:42:14;;;;;;;13.43;8.80;;;;;;;3.25;50.16;97421.97;5116502;28;20204;-63
2022/03/10 00:44:39;;;;;;;16.57;9.43;;;;;;;3.20;50.74;97424.25;5116520;28;20188;-64
2022/03/10 00:47:04;;;;;;;13.43;9.37;;;;;;;3.17;50.48;97423.78;5115780;28;20213;-63
2022/03/10 00:49:30;;;;;;;16.87;9.07;;;;;;;3.14;50.85;97424.91;5116170;28;20208;-63
2022/03/10 00:51:55;;;;;;;17.47;9.87;;;;;;;3.19;50.49;97427.00;5098005;28;20184;-63
2022/03/10 00:54:21;;;;;;;15.00;9.77;;;;;;;3.13;50.58;97425.88;5115973;28;20186;-63
2022/03/10 00:56:46;;;;;;;16.07;9.00;;;;;;;3.14;50.56;97429.25;5116489;28;20252;-63
2022/03/10 00:59:11;;;;;;;15.07;9.57;;;;;;;3.09;51.06;97424.59;5115452;28;20206;-65
2022/03/10 01:01:37;;;;;;;11.83;8.03;;;;;;;3.12;50.32;97426.03;5116106;28;20221;-63
2022/03/10 01:04:02;;;;;;;19.00;8.40;;;;;;;3.26;50.13;97423.59;5116187;28;20180;-63
2022/03/10 01:06:27;;;;;;;19.17;8.93;;;;;;;3.13;50.69;97420.69;5115820;28;20252;-63
2022/03/10 01:08:53;;;;;;;15.80;8.03;;;;;;;3.03;50.89;97417.47;5115321;28;20534;-63
2022/03/10 01:11:18;;;;;;;18.27;8.57;;;;;;;3.08;50.83;97422.97;5115929;28;20244;-63
2022/03/10 01:13:44;;;;;;;16.30;8.63;;;;;;;3.09;50.97;97419.41;5115886;28;20215;-63
2022/03/10 01:16:09;;;;;;;23.57;8.53;;;;;;;3.15;50.77;97417.94;5115456;28;20183;-63
2022/03/10 01:18:35;;;;;;;16.03;8.30;;;;;;;3.20;50.91;97419.06;5115826;28;20207;-63
2022/03/10 01:21:00;;;;;;;13.27;7.80;;;;;;;3.16;50.38;97417.78;5115120;28;20666;-63
2022/03/10 01:23:25;;;;;;;14.53;8.23;;;;;;;3.21;50.49;97412.91;5116063;28;20222;-63
2022/03/10 01:25:51;;;;;;;11.57;7.43;;;;;;;3.10;50.39;97410.66;5115548;28;20194;-65
2022/03/10 01:28:16;;;;;;;28.83;8.13;;;;;;;3.08;51.09;97404.03;5115554;28;20233;-63
2022/03/10 01:30:42;;;;;;;11.83;7.70;;;;;;;3.19;49.90;97403.69;5115359;28;20791;-63
2022/03/10 01:33:08;;;;;;;13.40;7.63;;;;;;;3.21;50.03;97405.16;5115719;28;20671;-63
2022/03/10 01:35:34;;;;;;;12.37;8.03;;;;;;;3.33;49.51;97398.66;5115303;28;20180;-63
2022/03/10 01:38:00;;;;;;;14.13;8.43;;;;;;;3.30;50.06;97404.13;5115299;28;20179;-63
2022/03/10 01:40:25;;;;;;;12.03;7.70;;;;;;;3.30;50.30;97395.56;5114339;28;20261;-63
2022/03/10 01:42:52;;;;;;;15.03;7.97;;;;;;;3.20;50.24;97395.75;5115448;28;20184;-63
2022/03/10 01:45:18;;;;;;;17.00;8.37;;;;;;;3.11;50.94;97396.75;5097208;28;20202;-63
2022/03/10 01:47:44;;;;;;;12.33;8.03;;;;;;;3.08;50.85;97394.47;5115143;28;20562;-63
2022/03/10 01:50:13;;;;;;;14.27;9.20;;;;;;;3.01;51.62;97403.88;5096981;28;20211;-63
2022/03/10 01:52:40;;;;;;;15.33;7.50;;;;;;;3.05;51.32;97394.00;5115306;28;20733;-63
2022/03/10 01:55:06;;;;;;;12.23;7.77;;;;;;;3.08;50.70;97397.06;5096730;28;20179;-63
2022/03/10 01:57:32;;;;;;;13.50;8.37;;;;;;;3.14;50.44;97398.19;5115080;28;20289;-63
2022/03/10 01:59:57;;;;;;;9.90;7.30;;;;;;;3.15;50.91;97392.03;5098296;28;20187;-63
2022/03/10 02:02:23;;;;;;;16.60;8.80;;;;;;;3.05;50.59;97391.41;5115552;28;20532;-63
2022/03/10 02:04:49;;;;;;;13.10;7.30;;;;;;;2.94;50.79;97387.38;5115322;28;20550;-63
2022/03/10 02:10:16;;;;;;;12.33;7.87;;;;;;;2.88;51.65;97399.22;5115074;28;20579;-63
2022/03/10 02:12:52;;;;;;;11.33;7.40;;;;;;;2.75;52.25;97396.28;5115285;28;20180;-63
2022/03/10 02:18:04;;;;;;;12.60;7.93;;;;;;;2.80;51.60;97393.22;5113296;28;20171;-63
2022/03/10 02:20:29;;;;;;;14.20;8.60;;;;;;;2.87;52.10;97391.59;5114705;28;20188;-63
2022/03/10 02:22:55;;;;;;;19.73;8.83;;;;;;;2.85;51.30;97393.53;5114539;28;20191;-63
2022/03/10 02:25:22;;;;;;;13.53;8.87;;;;;;;2.67;52.53;97398.09;5114374;28;20190;-63
2022/03/10 02:27:53;;;;;;;19.57;10.60;;;;;;;2.72;52.32;97406.16;5114333;28;20191;-62
2022/03/10 02:30:23;;;;;;;19.67;11.03;;;;;;;2.75;52.76;97395.47;5114454;28;20199;-63
2022/03/10 02:32:49;;;;;;;16.53;10.23;;;;;;;2.75;52.62;97395.47;5114055;28;20180;-63
2022/03/10 02:35:16;;;;;;;19.27;10.67;;;;;;;2.66;52.32;97401.63;5114891;28;20195;-63
2022/03/10 02:37:42;;;;;;;22.43;10.70;;;;;;;2.64;52.72;97399.19;5096025;28;20633;-63
2022/03/10 02:40:09;;;;;;;16.07;9.90;;;;;;;2.48;53.43;97406.97;5114386;28;20567;-63
2022/03/10 02:42:34;;;;;;;16.37;9.93;;;;;;;2.34;53.53;97405.78;5114525;28;20613;-63
2022/03/10 02:45:00;;;;;;;17.83;9.17;;;;;;;2.34;53.41;97410.19;5114250;28;20180;-63
2022/03/10 02:47:26;;;;;;;16.83;10.43;;;;;;;2.40;52.78;97406.94;5114014;28;20262;-63
2022/03/10 02:49:51;;;;;;;18.77;10.53;;;;;;;2.42;53.34;97415.34;5114526;28;20595;-63
2022/03/10 02:52:16;;;;;;;21.17;11.50;;;;;;;2.55;52.70;97402.75;5114017;28;20196;-63
2022/03/10 02:54:43;;;;;;;21.40;12.10;;;;;;;2.70;52.67;97408.91;5114222;28;20522;-63
2022/03/10 02:57:08;;;;;;;17.63;11.40;;;;;;;2.49;52.58;97416.34;5113991;28;20186;-63
2022/03/10 02:59:34;;;;;;;19.93;11.40;;;;;;;2.50;53.53;97412.78;5114016;28;20271;-63
2022/03/10 03:01:59;;;;;;;22.97;11.80;;;;;;;2.26;53.84;97417.91;5112629;28;20203;-63
2022/03/10 03:04:25;;;;;;;20.73;12.13;;;;;;;2.25;54.16;97417.09;5113880;28;20199;-63
2022/03/10 03:06:51;;;;;;;19.03;11.97;;;;;;;2.21;54.00;97417.59;5113486;28;20184;-64
2022/03/10 03:09:16;;;;;;;26.03;11.90;;;;;;;2.14;54.30;97425.16;5113841;28;20180;-63
2022/03/10 03:11:42;;;;;;;21.10;12.00;;;;;;;2.13;53.96;97420.94;5114112;28;20199;-63
2022/03/10 03:14:07;;;;;;;24.20;12.90;;;;;;;2.18;54.02;97425.66;5113583;28;20331;-63
2022/03/10 03:16:33;;;;;;;19.43;12.07;;;;;;;2.35;53.24;97424.72;5113440;28;20176;-64
2022/03/10 03:18:58;;;;;;;22.60;12.57;;;;;;;2.23;53.75;97424.19;5113812;28;20537;-63
2022/03/10 03:21:24;;;;;;;21.20;11.83;;;;;;;2.26;53.75;97426.50;5095248;28;20204;-63
2022/03/10 03:23:50;;;;;;;19.93;11.87;;;;;;;2.10;53.48;97431.63;5113672;28;20195;-64
2022/03/10 03:26:16;;;;;;;20.23;11.97;;;;;;;2.13;53.96;97423.53;5095108;28;20300;-63
2022/03/10 03:28:43;;;;;;;22.27;12.67;;;;;;;2.00;53.47;97431.75;5113485;28;20206;-63
2022/03/10 03:31:09;;;;;;;18.80;11.20;;;;;;;2.04;53.59;97425.31;5113146;28;20266;-63
2022/03/10 03:33:36;;;;;;;21.13;11.27;;;;;;;2.13;53.18;97425.31;5113106;28;20284;-63
2022/03/10 03:36:01;;;;;;;18.77;11.77;;;;;;;2.22;52.83;97430.38;5113530;28;20198;-63
2022/03/10 03:38:26;;;;;;;24.50;11.33;;;;;;;2.23;52.55;97429.38;5113139;28;20537;-63
2022/03/10 03:40:52;;;;;;;22.27;11.97;;;;;;;2.39;52.19;97428.63;5113007;28;20289;-63
2022/03/10 03:43:17;;;;;;;26.07;12.90;;;;;;;2.29;52.21;97431.31;5093689;28;20188;-63
2022/03/10 03:45:43;;;;;;;23.87;11.83;;;;;;;2.14;53.04;97426.94;5113158;28;20184;-64
2022/03/10 03:48:08;;;;;;;19.00;11.60;;;;;;;2.01;53.55;97440.31;5112322;28;20260;-63
2022/03/10 03:50:34;;;;;;;18.87;10.70;;;;;;;2.07;53.97;97434.50;5112954;28;20270;-63
2022/03/10 03:52:59;;;;;;;22.07;12.13;;;;;;;2.05;53.79;97441.63;5113090;28;20180;-63
2022/03/10 03:55:25;;;;;;;22.80;12.03;;;;;;;1.98;54.26;97438.84;5113099;28;20180;-62
2022/03/10 03:57:50;;;;;;;21.33;11.57;;;;;;;1.98;54.19;97443.22;5112719;28;20211;-63
2022/03/10 04:00:16;;;;;;;21.63;12.30;;;;;;;1.91;53.82;97442.22;5112411;28;20700;-63
2022/03/10 04:02:41;;;;;;;22.63;11.57;;;;;;;2.01;53.71;97446.28;5112729;28;20204;-63
2022/03/10 04:05:07;;;;;;;19.40;11.30;;;;;;;1.91;53.37;97445.59;5113039;28;20210;-63
2022/03/10 04:07:33;;;;;;;19.77;10.33;;;;;;;2.04;52.97;97442.59;5112526;28;20195;-62
2022/03/10 04:09:59;;;;;;;19.90;11.07;;;;;;;1.83;53.88;97445.59;5093550;28;20179;-62
2022/03/10 04:12:24;;;;;;;19.80;11.43;;;;;;;1.76;54.31;97451.53;5112725;28;20184;-62
2022/03/10 04:14:49;;;;;;;25.27;12.10;;;;;;;1.77;53.65;97445.41;5094273;28;20328;-63
2022/03/10 04:17:15;;;;;;;19.77;11.60;;;;;;;1.86;53.22;97450.44;5112794;28;20208;-62
2022/03/10 04:19:40;;;;;;;19.27;11.50;;;;;;;1.86;53.59;97454.78;5112670;28;20180;-63
2022/03/10 04:22:06;;;;;;;17.70;10.93;;;;;;;1.89;53.07;97455.31;5112487;28;20234;-63
2022/03/10 04:24:31;;;;;;;20.70;10.73;;;;;;;1.97;53.18;97457.91;5112620;28;20183;-63
2022/03/10 04:26:56;;;;;;;18.63;10.27;;;;;;;1.87;52.91;97456.41;5112211;28;20265;-63
2022/03/10 04:29:22;;;;;;;18.90;11.27;;;;;;;1.90;53.41;97458.69;5112605;28;20641;-63
2022/03/10 04:31:47;;;;;;;21.13;10.93;;;;;;;1.93;52.65;97448.84;5069122;28;20204;-63
2022/03/10 04:34:13;;;;;;;17.33;9.93;;;;;;;1.85;53.07;97456.56;5112293;28;20183;-63
2022/03/10 04:36:39;;;;;;;19.47;10.37;;;;;;;1.94;52.90;97449.66;5112592;28;20184;-63
2022/03/10 04:39:05;;;;;;;18.40;10.53;;;;;;;1.86;52.93;97449.63;5090415;28;20228;-63
2022/03/10 04:41:30;;;;;;;16.87;9.93;;;;;;;1.95;52.85;97451.28;5092384;28;20270;-63
2022/03/10 04:43:57;;;;;;;20.43;9.63;;;;;;;2.02;52.96;97445.31;5092137;28;20696;-63
2022/03/10 04:46:23;;;;;;;16.63;8.60;;;;;;;2.03;53.15;97440.97;5092460;28;20216;-63
2022/03/10 04:48:49;;;;;;;16.03;8.53;;;;;;;1.99;52.87;97444.84;5092574;28;20206;-63
2022/03/10 04:51:14;;;;;;;16.37;9.07;;;;;;;2.03;53.04;97443.56;5090907;28;20637;-63
2022/03/10 04:53:40;;;;;;;16.87;9.63;;;;;;;2.06;52.99;97446.63;5072210;28;20189;-62
2022/03/10 04:56:06;;;;;;;14.13;9.27;;;;;;;2.03;52.96;97444.34;5095416;28;20186;-63
2022/03/10 04:58:31;;;;;;;13.47;8.73;;;;;;;2.12;52.52;97442.59;5096105;28;20578;-63
2022/03/10 05:00:57;;;;;;;14.93;9.67;;;;;;;2.01;52.60;97441.13;5093856;28;20753;-63
2022/03/10 05:03:22;;;;;;;16.77;9.57;;;;;;;1.94;52.79;97439.31;5095953;28;20181;-65
2022/03/10 05:05:47;;;;;;;16.17;9.90;;;;;;;1.92;52.42;97436.91;5095910;28;20188;-62
2022/03/10 05:08:13;;;;;;;18.10;9.93;;;;;;;1.88;52.87;97437.38;5095983;28;20617;-63
2022/03/10 05:10:38;;;;;;;17.83;9.70;;;;;;;1.72;52.65;97435.53;5095375;28;20188;-63
2022/03/10 05:13:04;;;;;;;14.90;9.67;;;;;;;1.70;53.52;97432.28;5095332;28;20222;-63
2022/03/10 05:15:31;;;;;;;17.43;10.27;;;;;;;1.78;53.07;97440.09;5095292;28;20176;-62
2022/03/10 05:17:57;;;;;;;17.17;10.33;;;;;;;1.83;53.08;97437.03;5094972;28;20192;-63
2022/03/10 05:20:25;;;;;;;19.80;10.57;;;;;;;1.86;52.79;97428.94;5095915;28;20192;-63
2022/03/10 05:22:52;;;;;;;21.43;10.27;;;;;;;1.91;52.55;97434.44;5094400;28;20596;-62
2022/03/10 05:25:20;;;;;;;18.90;10.37;;;;;;;1.71;53.36;97423.56;5095243;28;20196;-62
2022/03/10 05:27:46;;;;;;;20.60;10.77;;;;;;;1.70;53.35;97421.94;5095089;28;20216;-62
2022/03/10 05:30:12;;;;;;;16.43;10.17;;;;;;;1.49;54.46;97422.34;5095286;28;20181;-62
2022/03/10 05:32:38;;;;;;;15.43;9.83;;;;;;;1.44;54.27;97422.00;5095041;28;20275;-62
2022/03/10 05:35:05;;;;;;;21.10;11.63;;;;;;;1.58;53.63;97416.25;5095010;28;20264;-62
2022/03/10 05:37:30;;;;;;;22.43;11.00;;;;;;;1.72;53.54;97424.38;5095102;28;20268;-62
2022/03/10 05:39:56;;;;;;;18.83;10.50;;;;;;;1.66;53.79;97420.66;5108445;28;20638;-62
2022/03/10 05:42:22;;;;;;;18.10;10.43;;;;;;;1.45;54.32;97423.59;5096850;28;20208;-62
2022/03/10 05:44:48;;;;;;;19.40;10.73;;;;;;;1.45;53.70;97427.97;5115434;28;20188;-62
2022/03/10 05:47:13;;;;;;;20.67;9.97;;;;;;;1.34;54.93;97430.81;5115544;28;20214;-65
2022/03/10 05:49:38;;;;;;;20.17;10.43;;;;;;;1.27;54.84;97434.97;5115184;28;20308;-63
2022/03/10 05:52:05;;;;;;;19.87;10.87;;;;;;;1.30;54.73;97426.91;5115228;28;20207;-62
2022/03/10 05:54:32;;;;;;;21.83;11.40;;;;;;;1.29;55.36;97426.09;5097801;28;20191;-62
2022/03/10 05:56:57;;;;;;;19.43;10.73;;;;;;;1.52;54.68;97441.88;5097224;28;20186;-61
2022/03/10 05:59:23;;;;;;;21.87;11.17;;;;;;;1.56;54.44;97441.41;5114965;28;20267;-63
2022/03/10 06:01:49;;;;;;;19.93;11.00;;;;;;;1.64;54.40;97438.06;5114735;28;20216;-62
2022/03/10 06:04:15;;;;;;;20.77;12.03;;;;;;;1.71;54.06;97435.69;5096576;28;20719;-64
2022/03/10 06:06:43;;;;;;;21.07;11.43;;;;;;;1.76;54.11;97436.84;5114142;28;20184;-67
2022/03/10 06:09:09;;;;;;;24.53;12.60;;;;;;;1.94;52.97;97432.38;5114302;28;20573;-62
2022/03/10 06:11:34;;;;;;;24.63;14.57;;;;;;;2.06;52.92;97436.28;5115401;28;20196;-62
2022/03/10 06:14:00;;;;;;;25.30;14.37;;;;;;;2.02;52.50;97431.59;5096718;28;20229;-63
2022/03/10 06:16:26;;;;;;;26.90;14.07;;;;;;;2.22;52.68;97434.72;5114690;28;20663;-63
2022/03/10 06:18:51;;;;;;;23.27;12.57;;;;;;;2.55;51.47;97443.34;5096449;28;20176;-62
2022/03/10 06:21:17;;;;;;;24.20;12.23;;;;;;;2.65;51.03;97441.41;5114495;28;20239;-62
2022/03/10 06:23:42;;;;;;;23.50;11.30;;;;;;;2.71;51.37;97446.75;5115145;28;20180;-63
2022/03/10 06:26:08;;;;;;;20.73;10.73;;;;;;;2.79;50.61;97436.41;5114649;28;20184;-63
2022/03/10 06:28:34;;;;;;;22.02;13.75;;;;;;;3.24;49.61;97437.66;5112892;28;20408;-63
2022/03/10 06:30:59;;;;;;;21.93;14.90;;;;;;;3.40;49.08;97435.03;5113626;28;20393;-63
2022/03/10 06:33:25;;;;;;;25.90;15.75;;;;;;;3.78;47.68;97430.09;5113122;28;20389;-63
2022/03/10 06:35:50;;;;;;;23.35;15.25;;;;;;;3.98;47.99;97434.69;5113404;28;20385;-63
2022/03/10 06:38:16;;;;;;;21.17;12.80;;;;;;;3.88;48.47;97425.50;5114075;28;20636;-63
2022/03/10 06:40:42;;;;;;;20.03;10.97;;;;;;;3.95;48.35;97429.03;5095845;28;20228;-63
2022/03/10 06:43:07;;;;;;;21.03;13.27;;;;;;;4.41;47.13;97432.50;5113229;28;20407;-63
2022/03/10 06:45:32;;;;;;;21.23;12.85;;;;;;;4.64;46.05;97428.16;5112681;28;20877;-63
2022/03/10 06:47:58;;;;;;;19.07;12.93;;;;;;;5.00;46.35;97426.56;5112624;28;20396;-63
2022/03/10 06:50:24;;;;;;;19.97;13.30;;;;;;;5.39;45.58;97438.56;5112580;28;20456;-63
2022/03/10 06:52:52;;;;;;;21.07;12.63;;;;;;;5.47;44.69;97438.47;5112992;28;20477;-63
2022/03/10 06:55:19;;;;;;;17.25;11.98;;;;;;;5.52;44.25;97436.13;5093741;28;20732;-63
2022/03/10 06:57:46;;;;;;;17.27;10.90;;;;;;;5.47;44.78;97440.25;5114495;28;20252;-64
2022/03/10 07:00:11;;;;;;;18.53;10.43;;;;;;;5.47;44.45;97440.25;5113431;28;20267;-63
2022/03/10 07:02:37;;;;;;;17.50;10.67;;;;;;;5.72;44.02;97439.81;5114085;28;20283;-63
2022/03/10 07:05:03;;;;;;;14.83;8.77;;;;;;;5.86;44.30;97441.59;5095936;28;20176;-62
2022/03/10 07:07:28;;;;;;;14.87;9.00;;;;;;;5.99;44.32;97437.59;5113787;28;20191;-63
2022/03/10 07:09:54;;;;;;;18.73;10.20;;;;;;;6.26;45.56;97453.34;5113505;28;20533;-63
2022/03/10 07:12:19;;;;;;;17.37;10.53;;;;;;;6.32;45.62;97462.22;5095656;28;20188;-63
2022/03/10 07:14:45;;;;;;;22.93;11.07;;;;;;;6.02;44.49;97458.84;5113843;28;20184;-63
2022/03/10 07:17:10;;;;;;;25.20;11.97;;;;;;;5.74;44.97;97465.66;5110858;28;20168;-64
2022/03/10 07:19:36;;;;;;;22.00;12.30;;;;;;;5.64;45.49;97467.69;5100603;28;20233;-63
2022/03/10 07:22:01;;;;;;;26.43;12.70;;;;;;;5.96;45.42;97471.78;5113338;28;20627;-64
2022/03/10 07:24:26;;;;;;;21.10;12.20;;;;;;;6.07;45.34;97466.13;5113496;28;20176;-64
2022/03/10 07:26:52;;;;;;;24.77;13.47;;;;;;;5.93;45.59;97475.53;5095044;28;20192;-65
2022/03/10 07:29:17;;;;;;;22.20;12.57;;;;;;;5.91;45.96;97474.13;5113301;28;20270;-64
2022/03/10 07:31:43;;;;;;;21.87;12.03;;;;;;;5.98;45.08;97475.81;5095591;28;20268;-64
2022/03/10 07:34:08;;;;;;;19.73;11.53;;;;;;;6.22;45.30;97482.53;5113356;28;20180;-64
2022/03/10 07:36:33;;;;;;;18.10;11.23;;;;;;;6.18;44.54;97479.50;5113270;28;20218;-64
2022/03/10 07:38:59;;;;;;;17.63;9.77;;;;;;;6.22;44.18;97487.72;5112021;28;20234;-66
2022/03/10 07:41:25;;;;;;;18.00;10.40;;;;;;;6.47;43.63;97480.41;5106603;28;20205;-64
2022/03/10 07:43:51;;;;;;;18.80;9.53;;;;;;;6.33;43.05;97487.25;5108535;28;20183;-65
2022/03/10 07:46:16;;;;;;;17.00;8.97;;;;;;;6.41;43.19;97489.75;5112950;28;20245;-65
2022/03/10 07:48:42;;;;;;;14.57;9.30;;;;;;;6.55;42.99;97490.72;5094618;28;20560;-66
2022/03/10 07:51:07;;;;;;;14.43;8.83;;;;;;;6.76;42.78;97484.72;5112525;28;20188;-65
2022/03/10 07:53:33;;;;;;;15.00;8.50;;;;;;;6.94;49.27;97493.72;5094771;28;20656;-65
2022/03/10 07:55:58;;;;;;;16.50;8.50;;;;;;;8.74;51.00;97485.03;5093987;28;20180;-63
2022/03/10 07:58:25;;;;;;;15.37;8.63;;;;;;;8.04;41.22;97488.72;5113191;28;20632;-64
2022/03/10 08:00:54;;;;;;;14.63;9.63;;;;;;;7.88;41.60;97487.25;5111824;28;20224;-64
2022/03/10 08:03:21;;;;;;;15.10;8.57;;;;;;;7.69;41.81;97487.13;5112879;28;20750;-65
2022/03/10 08:05:46;;;;;;;17.67;8.37;;;;;;;7.60;42.09;97483.03;5111094;28;20236;-66
2022/03/10 08:08:13;;;;;;;13.27;8.07;;;;;;;7.59;42.27;97481.41;5094044;28;20184;-65
2022/03/10 08:10:39;;;;;;;14.90;8.13;;;;;;;7.62;42.08;97484.47;5094330;28;20184;-64
2022/03/10 08:13:05;;;;;;;13.23;8.73;;;;;;;7.74;42.22;97479.53;5112157;28;20184;-66
2022/03/10 08:15:30;;;;;;;13.53;6.87;;;;;;;7.83;42.37;97489.63;5112954;28;20265;-64
2022/03/10 08:17:56;;;;;;;12.30;8.07;;;;;;;7.31;43.10;97487.44;5113053;28;20187;-64
2022/03/10 08:20:21;;;;;;;13.30;8.13;;;;;;;7.30;43.40;97491.03;5112008;28;20234;-64
2022/03/10 08:22:47;;;;;;;10.63;6.93;;;;;;;7.38;44.02;97493.53;5094436;28;20199;-65
2022/03/10 08:25:12;;;;;;;12.00;7.77;;;;;;;7.57;43.38;97483.44;5112696;28;20192;-64
2022/03/10 08:27:38;;;;;;;12.90;7.77;;;;;;;7.44;43.39;97495.38;5112132;28;20200;-64
2022/03/10 08:30:04;;;;;;;10.90;6.67;;;;;;;7.05;44.04;97487.22;5114226;28;20637;-64
2022/03/10 08:32:30;;;;;;;11.07;6.87;;;;;;;6.81;43.86;97487.56;5116251;28;20184;-64
2022/03/10 08:34:55;;;;;;;9.70;6.60;;;;;;;7.08;43.82;97487.63;5116689;28;20695;-66
2022/03/10 08:37:22;;;;;;;9.67;6.43;;;;;;;7.08;43.73;97484.22;5098137;28;20563;-64
2022/03/10 08:39:49;;;;;;;10.27;6.50;;;;;;;7.12;43.75;97476.84;5116681;28;20227;-63
2022/03/10 08:42:15;;;;;;;9.27;6.10;;;;;;;7.25;43.40;97469.13;5116326;28;20192;-63
2022/03/10 08:44:41;;;;;;;10.23;7.47;;;;;;;7.24;43.52;97475.34;5116496;28;20581;-64
2022/03/10 08:47:06;;;;;;;9.87;7.07;;;;;;;7.40;43.31;97469.88;5116297;28;20309;-64
2022/03/10 08:49:32;;;;;;;8.97;5.67;;;;;;;7.65;43.10;97465.00;5116556;28;20266;-64
2022/03/10 08:51:57;;;;;;;10.53;6.83;;;;;;;7.58;43.14;97464.97;5116412;28;20187;-64
2022/03/10 08:54:24;;;;;;;10.77;7.57;;;;;;;7.47;43.92;97461.06;5116897;28;20184;-64
2022/03/10 08:56:50;;;;;;;10.37;6.40;;;;;;;7.72;43.27;97463.25;5116072;28;20263;-66
2022/03/10 08:59:15;;;;;;;9.90;6.80;;;;;;;7.61;42.63;97459.38;5097628;28;20653;-64
2022/03/10 09:01:41;;;;;;;10.43;7.00;;;;;;;7.68;43.18;97459.41;5116127;28;20277;-65
2022/03/10 09:04:06;;;;;;;10.03;7.07;;;;;;;7.76;43.25;97454.84;5115531;28;20191;-65
2022/03/10 09:06:32;;;;;;;11.63;6.47;;;;;;;7.90;42.99;97461.75;5116266;28;20184;-64
2022/03/10 09:08:58;;;;;;;11.63;7.20;;;;;;;8.18;42.78;97448.66;5116066;28;20270;-64
2022/03/10 09:11:24;;;;;;;11.07;6.73;;;;;;;8.14;42.31;97450.00;5115326;28;20184;-64
2022/03/10 09:13:49;;;;;;;12.93;6.73;;;;;;;7.85;43.26;97451.09;5116278;28;20188;-64
2022/03/10 09:16:17;;;;;;;10.57;7.57;;;;;;;7.88;43.01;97444.69;5115504;28;20599;-64
2022/03/10 09:18:43;;;;;;;11.23;7.53;;;;;;;7.99;43.34;97444.13;5097754;28;20198;-64
2022/03/10 09:21:09;;;;;;;10.53;6.87;;;;;;;7.86;43.32;97447.47;5115606;28;20192;-65
2022/03/10 09:23:35;;;;;;;11.57;7.23;;;;;;;8.00;42.33;97445.75;5116295;28;20192;-64
2022/03/10 09:26:00;;;;;;;12.07;7.10;;;;;;;8.15;42.14;97440.38;5115806;28;20533;-65
2022/03/10 09:28:26;;;;;;;15.67;7.83;;;;;;;8.10;42.55;97446.19;5097585;28;20184;-65
2022/03/10 09:30:51;;;;;;;10.63;6.47;;;;;;;7.97;42.52;97440.91;5115604;28;20195;-63
2022/03/10 09:33:16;;;;;;;9.57;6.53;;;;;;;7.97;42.89;97443.50;5096762;28;20620;-64
2022/03/10 09:35:42;;;;;;;10.27;7.57;;;;;;;7.88;43.20;97442.88;5115364;28;20176;-63
2022/03/10 09:38:08;;;;;;;12.40;7.43;;;;;;;7.82;43.15;97437.63;5115752;28;20192;-63
2022/03/10 09:40:33;;;;;;;9.50;6.77;;;;;;;7.65;43.80;97446.75;5115022;28;20246;-63
2022/03/10 09:42:59;;;;;;;10.47;7.33;;;;;;;7.85;44.09;97434.63;5113774;28;20211;-63
2022/03/10 09:45:28;;;;;;;12.07;7.73;;;;;;;8.23;43.76;97433.19;5115414;28;20275;-63
2022/03/10 09:47:54;;;;;;;12.50;7.50;;;;;;;8.28;43.54;97436.03;5107085;28;20176;-64
2022/03/10 09:50:19;;;;;;;11.57;7.13;;;;;;;8.11;42.95;97432.13;5115325;28;20583;-63
2022/03/10 09:52:46;;;;;;;10.23;6.90;;;;;;;8.33;43.00;97428.44;5097344;28;20195;-63
2022/03/10 09:55:14;;;;;;;12.83;7.37;;;;;;;8.28;42.61;97440.44;5114952;28;20191;-64
2022/03/10 09:57:42;;;;;;;9.00;6.73;;;;;;;8.54;42.43;97430.09;5113940;28;20180;-66
2022/03/10 10:00:10;;;;;;;9.10;6.00;;;;;;;8.54;42.09;97434.50;5098442;28;20200;-64
2022/03/10 10:02:37;;;;;;;9.33;6.30;;;;;;;8.39;42.38;97421.63;5115281;28;20192;-64
2022/03/10 10:05:17;;;;;;;8.43;5.63;;;;;;;8.69;42.25;97430.72;5115240;28;20187;-64
2022/03/10 10:08:01;;;;;;;8.10;5.57;;;;;;;8.85;41.68;97426.13;5096548;28;20278;-64
2022/03/10 10:10:28;;;;;;;7.93;4.80;;;;;;;9.08;40.54;97431.78;5115398;28;20175;-64
2022/03/10 10:12:53;;;;;;;10.10;6.00;;;;;;;8.95;41.23;97423.94;5114908;28;20192;-64
2022/03/10 10:15:19;;;;;;;7.33;5.50;;;;;;;9.08;41.33;97423.94;5114969;28;20546;-64
2022/03/10 10:17:45;;;;;;;6.37;5.17;;;;;;;9.27;40.31;97415.28;5114462;28;20199;-65
2022/03/10 10:20:10;;;;;;;9.37;5.97;;;;;;;9.56;40.74;97422.69;5115112;28;20183;-65
2022/03/10 10:22:36;;;;;;;6.73;4.83;;;;;;;9.49;40.19;97411.41;5114774;28;20720;-64
2022/03/10 10:25:05;;;;;;;9.97;5.80;;;;;;;9.78;39.61;97406.72;5114839;28;20207;-63
2022/03/10 10:27:32;;;;;;;8.40;5.80;;;;;;;9.88;40.08;97407.91;5114526;28;20202;-62
2022/03/10 10:30:05;;;;;;;8.63;5.43;;;;;;;9.97;39.51;97398.78;5114478;28;20188;-64
2022/03/10 10:32:36;;;;;;;6.90;4.83;;;;;;;10.00;39.44;97397.59;5114969;28;20176;-64
2022/03/10 10:35:06;;;;;;;7.07;5.27;;;;;;;9.75;38.88;97396.69;5114770;28;20221;-64
2022/03/10 10:37:33;;;;;;;7.07;5.17;;;;;;;10.02;39.04;97395.56;5114386;28;20198;-65
2022/03/10 10:39:58;;;;;;;7.53;5.90;;;;;;;10.18;39.00;97389.09;5114396;28;20223;-64
2022/03/10 10:42:28;;;;;;;7.77;5.50;;;;;;;10.25;38.68;97384.63;5114081;28;20199;-64
2022/03/10 10:44:54;;;;;;;10.27;5.50;;;;;;;10.00;38.78;97374.81;5113664;28;20206;-65
2022/03/10 10:47:20;;;;;;;8.43;5.47;;;;;;;10.05;39.08;97379.44;5114385;28;20632;-64
2022/03/10 10:49:56;;;;;;;8.57;5.00;;;;;;;10.01;38.92;97373.00;5113893;28;20180;-64
2022/03/10 10:52:21;;;;;;;9.37;5.03;;;;;;;10.35;38.48;97379.72;5114349;28;20180;-64
2022/03/10 10:54:46;;;;;;;5.57;4.47;;;;;;;10.52;37.99;97367.72;5114258;28;20292;-65
2022/03/10 10:57:20;;;;;;;4.13;3.43;;;;;;;10.71;36.82;97371.22;5114309;28;20180;-62
2022/03/10 10:59:47;;;;;;;4.67;3.13;;;;;;;10.59;36.39;97378.97;5113104;28;20257;-65
2022/03/10 11:02:17;;;;;;;4.33;3.33;;;;;;;10.78;35.38;97369.34;5114213;28;20200;-64
2022/03/10 11:04:47;;;;;;;4.77;3.83;;;;;;;10.86;35.88;97363.88;5113917;28;20212;-62
2022/03/10 11:07:14;;;;;;;5.13;2.90;;;;;;;11.09;36.15;97355.41;5111942;28;20175;-63
2022/03/10 11:09:42;;;;;;;3.63;2.80;;;;;;;11.12;35.29;97357.59;5114071;28;20190;-62
2022/03/10 11:12:09;;;;;;;4.03;3.53;;;;;;;11.08;34.93;97359.03;5113930;28;20196;-63
2022/03/10 11:14:35;;;;;;;4.37;3.43;;;;;;;10.93;35.00;97353.28;5113630;28;20184;-64
2022/03/10 11:17:01;;;;;;;3.63;3.00;;;;;;;10.88;35.23;97359.19;5113826;28;20206;-64
2022/03/10 11:19:33;;;;;;;3.47;3.00;;;;;;;10.88;34.40;97353.13;5113703;28;20187;-64
2022/03/10 11:22:23;;;;;;;3.93;3.17;;;;;;;10.91;34.67;97350.91;5113750;28;20291;-64
2022/03/10 11:25:01;;;;;;;4.40;2.73;;;;;;;11.16;34.70;97349.06;5114016;28;20661;-63
2022/03/10 11:27:41;;;;;;;3.20;2.73;;;;;;;11.25;33.88;97346.97;5113957;28;20179;-62
2022/03/10 11:30:07;;;;;;;4.60;3.00;;;;;;;11.46;34.07;97335.25;5113410;28;20218;-62
2022/03/10 11:32:33;;;;;;;3.33;2.77;;;;;;;11.33;33.96;97338.81;5113287;28;20203;-62